createdAt,value
2022-10-09T00:00:49.676Z,0.00
2022-10-09T00:01:49.662Z,0.00
2022-10-09T00:02:50.020Z,0.00
2022-10-09T00:03:49.655Z,0.00
2022-10-09T00:04:49.658Z,0.00
2022-10-09T00:05:49.630Z,0.00
2022-10-09T00:06:49.606Z,0.00
2022-10-09T00:07:49.626Z,0.00
2022-10-09T00:08:49.587Z,0.00
2022-10-09T00:09:49.583Z,0.00
2022-10-09T00:10:49.576Z,0.00
2022-10-09T00:11:49.567Z,0.00
2022-10-09T00:12:50.007Z,0.00
2022-10-09T00:13:49.539Z,0.00
2022-10-09T00:14:49.528Z,0.00
2022-10-09T00:15:49.507Z,0.00
2022-10-09T00:16:49.526Z,0.00
2022-10-09T00:17:49.496Z,0.00
2022-10-09T00:18:49.499Z,0.00
2022-10-09T00:19:49.491Z,0.00
2022-10-09T00:20:49.476Z,0.00
2022-10-09T00:21:49.449Z,0.00
2022-10-09T00:22:49.858Z,0.00
2022-10-09T00:23:49.428Z,0.00
2022-10-09T00:24:49.420Z,0.00
2022-10-09T00:25:49.421Z,0.00
2022-10-09T00:26:49.392Z,0.00
2022-10-09T00:27:49.388Z,0.00
2022-10-09T00:28:49.538Z,0.00
2022-10-09T00:29:49.372Z,0.00
2022-10-09T00:30:49.406Z,0.00
2022-10-09T00:31:49.355Z,0.00
2022-10-09T00:32:49.633Z,0.00
2022-10-09T00:33:49.333Z,0.00
2022-10-09T00:34:49.311Z,0.00
2022-10-09T00:35:49.312Z,0.00
2022-10-09T00:36:49.298Z,0.00
2022-10-09T00:37:49.310Z,0.00
2022-10-09T00:38:49.283Z,0.00
2022-10-09T00:39:49.261Z,0.00
2022-10-09T00:40:49.252Z,0.00
2022-10-09T00:41:49.243Z,0.00
2022-10-09T00:42:49.493Z,0.00
2022-10-09T00:43:49.223Z,0.00
2022-10-09T00:44:49.217Z,0.00
2022-10-09T00:45:49.276Z,0.00
2022-10-09T00:46:49.226Z,0.00
2022-10-09T00:47:49.180Z,0.00
2022-10-09T00:48:49.190Z,0.00
2022-10-09T00:49:49.155Z,0.00
2022-10-09T00:50:49.143Z,0.00
2022-10-09T00:51:49.134Z,0.00
2022-10-09T00:52:49.564Z,0.00
2022-10-09T00:53:49.146Z,0.00
2022-10-09T00:54:49.115Z,0.00
2022-10-09T00:55:49.093Z,0.00
2022-10-09T00:56:49.084Z,0.00
2022-10-09T00:57:49.072Z,0.00
2022-10-09T00:58:49.066Z,0.00
2022-10-09T00:59:49.083Z,0.00
2022-10-09T01:00:49.034Z,0.00
2022-10-09T01:01:49.154Z,0.00
2022-10-09T01:02:49.439Z,0.00
2022-10-09T01:03:49.007Z,0.00
2022-10-09T01:04:49.026Z,0.00
2022-10-09T01:05:48.986Z,0.00
2022-10-09T01:06:48.993Z,0.00
2022-10-09T01:07:49.027Z,0.00
2022-10-09T01:08:48.956Z,0.00
2022-10-09T01:09:49.208Z,0.00
2022-10-09T01:10:48.938Z,0.00
2022-10-09T01:11:48.929Z,0.00
2022-10-09T01:12:49.174Z,0.00
2022-10-09T01:13:48.918Z,0.00
2022-10-09T01:14:48.916Z,0.00
2022-10-09T01:15:48.902Z,0.00
2022-10-09T01:16:48.879Z,0.00
2022-10-09T01:17:48.868Z,0.00
2022-10-09T01:18:48.868Z,0.00
2022-10-09T01:19:48.859Z,0.00
2022-10-09T01:20:48.841Z,0.00
2022-10-09T01:21:48.828Z,0.00
2022-10-09T01:22:49.043Z,0.00
2022-10-09T01:23:48.812Z,0.00
2022-10-09T01:24:48.809Z,0.00
2022-10-09T01:25:48.783Z,0.00
2022-10-09T01:26:48.773Z,0.00
2022-10-09T01:27:48.760Z,0.00
2022-10-09T01:28:48.769Z,0.00
2022-10-09T01:29:48.741Z,0.00
2022-10-09T01:30:48.762Z,0.00
2022-10-09T01:31:48.731Z,0.00
2022-10-09T01:32:48.963Z,0.00
2022-10-09T01:33:48.703Z,0.00
2022-10-09T01:34:48.711Z,0.00
2022-10-09T01:35:48.671Z,0.00
2022-10-09T01:36:48.671Z,0.00
2022-10-09T01:37:48.661Z,0.00
2022-10-09T01:38:48.641Z,0.00
2022-10-09T01:39:48.653Z,0.00
2022-10-09T01:40:48.631Z,0.00
2022-10-09T01:41:48.612Z,0.00
2022-10-09T01:42:48.855Z,0.00
2022-10-09T01:43:48.592Z,0.00
2022-10-09T01:44:48.602Z,0.00
2022-10-09T01:45:48.572Z,0.00
2022-10-09T01:46:48.563Z,0.00
2022-10-09T01:47:48.583Z,0.00
2022-10-09T01:48:48.563Z,0.00
2022-10-09T01:49:48.534Z,0.00
2022-10-09T01:50:48.533Z,0.00
2022-10-09T01:51:48.512Z,0.00
2022-10-09T01:52:48.808Z,0.00
2022-10-09T01:53:48.493Z,0.00
2022-10-09T01:54:48.483Z,0.00
2022-10-09T01:55:48.485Z,0.00
2022-10-09T01:56:48.683Z,0.00
2022-10-09T01:57:48.636Z,0.00
2022-10-09T01:58:48.603Z,0.00
2022-10-09T01:59:48.763Z,0.00
2022-10-09T02:00:48.578Z,0.00
2022-10-09T02:01:48.514Z,0.00
2022-10-09T02:02:48.797Z,0.00
2022-10-09T02:03:48.396Z,0.00
2022-10-09T02:04:48.414Z,0.00
2022-10-09T02:05:48.370Z,0.00
2022-10-09T02:06:48.355Z,0.00
2022-10-09T02:07:48.346Z,0.00
2022-10-09T02:08:48.334Z,0.00
2022-10-09T02:09:48.336Z,0.00
2022-10-09T02:10:48.333Z,0.00
2022-10-09T02:11:48.316Z,0.00
2022-10-09T02:12:48.626Z,0.00
2022-10-09T02:13:48.307Z,0.00
2022-10-09T02:14:48.269Z,0.00
2022-10-09T02:15:48.327Z,0.00
2022-10-09T02:16:48.246Z,0.00
2022-10-09T02:17:48.247Z,0.00
2022-10-09T02:18:48.235Z,0.00
2022-10-09T02:19:48.246Z,0.00
2022-10-09T02:20:48.198Z,0.00
2022-10-09T02:21:52.468Z,0.00
2022-10-09T02:22:49.526Z,0.00
2022-10-09T02:23:48.182Z,0.00
2022-10-09T02:24:48.174Z,0.00
2022-10-09T02:25:48.200Z,0.00
2022-10-09T02:26:48.149Z,0.00
2022-10-09T02:27:48.138Z,0.00
2022-10-09T02:28:48.212Z,0.00
2022-10-09T02:29:48.125Z,0.00
2022-10-09T02:30:48.180Z,0.00
2022-10-09T02:31:48.117Z,0.00
2022-10-09T02:32:48.253Z,0.00
2022-10-09T02:33:48.069Z,0.00
2022-10-09T02:34:48.059Z,0.00
2022-10-09T02:35:48.066Z,0.00
2022-10-09T02:36:48.043Z,0.00
2022-10-09T02:37:48.029Z,0.00
2022-10-09T02:38:48.021Z,0.00
2022-10-09T02:39:48.034Z,0.00
2022-10-09T02:40:47.991Z,0.00
2022-10-09T02:41:48.004Z,0.00
2022-10-09T02:42:48.159Z,0.00
2022-10-09T02:43:47.961Z,0.00
2022-10-09T02:44:47.951Z,0.00
2022-10-09T02:45:47.994Z,0.00
2022-10-09T02:46:48.038Z,0.00
2022-10-09T02:47:47.914Z,0.00
2022-10-09T02:48:47.912Z,0.00
2022-10-09T02:49:47.918Z,0.00
2022-10-09T02:50:47.925Z,0.00
2022-10-09T02:51:47.882Z,0.00
2022-10-09T02:52:48.075Z,0.00
2022-10-09T02:53:47.864Z,0.00
2022-10-09T02:54:47.848Z,0.00
2022-10-09T02:55:47.832Z,0.00
2022-10-09T02:56:47.851Z,0.00
2022-10-09T02:57:47.822Z,0.00
2022-10-09T02:58:47.805Z,0.00
2022-10-09T02:59:47.804Z,0.00
2022-10-09T03:00:47.792Z,0.00
2022-10-09T03:01:47.885Z,0.00
2022-10-09T03:02:48.163Z,0.00
2022-10-09T03:03:47.744Z,0.00
2022-10-09T03:04:47.753Z,0.00
2022-10-09T03:05:47.733Z,0.00
2022-10-09T03:06:47.775Z,0.00
2022-10-09T03:07:47.715Z,0.00
2022-10-09T03:08:47.701Z,0.00
2022-10-09T03:09:47.704Z,0.00
2022-10-09T03:10:47.676Z,0.00
2022-10-09T03:11:47.674Z,0.00
2022-10-09T03:12:48.103Z,0.00
2022-10-09T03:13:47.653Z,0.00
2022-10-09T03:14:47.646Z,0.00
2022-10-09T03:15:47.668Z,0.00
2022-10-09T03:16:47.615Z,0.00
2022-10-09T03:17:47.629Z,0.00
2022-10-09T03:18:47.607Z,0.00
2022-10-09T03:19:47.596Z,0.00
2022-10-09T03:20:47.575Z,0.00
2022-10-09T03:21:47.567Z,0.00
2022-10-09T03:22:47.873Z,0.00
2022-10-09T03:23:47.538Z,0.00
2022-10-09T03:24:47.549Z,0.00
2022-10-09T03:25:47.528Z,0.00
2022-10-09T03:26:47.517Z,0.00
2022-10-09T03:27:47.528Z,0.00
2022-10-09T03:28:47.569Z,0.00
2022-10-09T03:29:47.493Z,0.00
2022-10-09T03:30:47.490Z,0.00
2022-10-09T03:31:52.418Z,0.00
2022-10-09T03:32:48.719Z,0.00
2022-10-09T03:33:47.439Z,0.00
2022-10-09T03:34:47.428Z,0.00
2022-10-09T03:35:47.430Z,0.00
2022-10-09T03:36:47.417Z,0.00
2022-10-09T03:37:47.409Z,0.00
2022-10-09T03:38:47.384Z,0.00
2022-10-09T03:39:47.378Z,0.00
2022-10-09T03:40:47.390Z,0.00
2022-10-09T03:41:47.351Z,0.00
2022-10-09T03:42:47.692Z,0.00
2022-10-09T03:43:47.331Z,0.00
2022-10-09T03:44:47.389Z,0.00
2022-10-09T03:45:47.310Z,0.00
2022-10-09T03:46:47.346Z,0.00
2022-10-09T03:47:47.302Z,0.00
2022-10-09T03:48:47.293Z,0.00
2022-10-09T03:49:47.279Z,0.00
2022-10-09T03:50:47.261Z,0.00
2022-10-09T03:51:47.258Z,0.00
2022-10-09T03:52:47.564Z,0.00
2022-10-09T03:53:47.252Z,0.00
2022-10-09T03:54:47.221Z,0.00
2022-10-09T03:55:47.213Z,0.00
2022-10-09T03:56:47.204Z,0.00
2022-10-09T03:57:47.219Z,0.00
2022-10-09T03:58:47.181Z,0.00
2022-10-09T03:59:47.162Z,0.00
2022-10-09T04:00:47.192Z,0.00
2022-10-09T04:01:47.153Z,0.00
2022-10-09T04:02:47.446Z,0.00
2022-10-09T04:03:47.133Z,0.00
2022-10-09T04:04:47.111Z,0.00
2022-10-09T04:05:47.114Z,0.00
2022-10-09T04:06:47.101Z,0.00
2022-10-09T04:07:47.102Z,0.00
2022-10-09T04:08:47.094Z,0.00
2022-10-09T04:09:47.064Z,0.00
2022-10-09T04:10:47.044Z,0.00
2022-10-09T04:11:47.047Z,0.00
2022-10-09T04:12:47.252Z,0.00
2022-10-09T04:13:47.029Z,0.00
2022-10-09T04:14:47.021Z,0.00
2022-10-09T04:15:46.996Z,0.00
2022-10-09T04:16:47.034Z,0.00
2022-10-09T04:17:46.987Z,0.00
2022-10-09T04:18:46.993Z,0.00
2022-10-09T04:19:46.953Z,0.00
2022-10-09T04:20:46.996Z,0.00
2022-10-09T04:21:46.948Z,0.00
2022-10-09T04:22:47.195Z,0.00
2022-10-09T04:23:46.939Z,0.00
2022-10-09T04:24:46.907Z,0.00
2022-10-09T04:25:46.922Z,0.00
2022-10-09T04:26:46.897Z,0.00
2022-10-09T04:27:46.879Z,0.00
2022-10-09T04:28:47.011Z,0.00
2022-10-09T04:29:46.848Z,0.00
2022-10-09T04:30:46.848Z,0.00
2022-10-09T04:31:47.007Z,0.00
2022-10-09T04:32:47.149Z,0.00
2022-10-09T04:33:46.828Z,0.00
2022-10-09T04:34:46.809Z,0.00
2022-10-09T04:35:46.733Z,0.00
2022-10-09T04:36:46.859Z,0.00
2022-10-09T04:37:46.769Z,0.00
2022-10-09T04:38:46.768Z,0.00
2022-10-09T04:39:47.439Z,0.00
2022-10-09T04:40:46.750Z,0.00
2022-10-09T04:41:46.790Z,0.00
2022-10-09T04:42:47.056Z,0.00
2022-10-09T04:43:46.671Z,0.00
2022-10-09T04:44:46.640Z,0.00
2022-10-09T04:45:46.665Z,0.00
2022-10-09T04:46:46.625Z,0.00
2022-10-09T04:47:46.680Z,0.00
2022-10-09T04:48:46.608Z,0.00
2022-10-09T04:49:46.589Z,0.00
2022-10-09T04:50:46.580Z,0.00
2022-10-09T04:51:46.570Z,0.00
2022-10-09T04:52:46.944Z,0.00
2022-10-09T04:53:46.577Z,0.00
2022-10-09T04:54:46.540Z,0.00
2022-10-09T04:55:46.524Z,0.00
2022-10-09T04:56:46.533Z,0.00
2022-10-09T04:57:46.512Z,0.00
2022-10-09T04:58:46.513Z,0.00
2022-10-09T04:59:46.482Z,0.00
2022-10-09T05:00:46.532Z,0.00
2022-10-09T05:01:46.589Z,0.00
2022-10-09T05:02:46.791Z,0.00
2022-10-09T05:03:46.444Z,0.00
2022-10-09T05:04:46.442Z,0.00
2022-10-09T05:05:46.443Z,0.00
2022-10-09T05:06:46.414Z,0.00
2022-10-09T05:07:46.423Z,0.00
2022-10-09T05:08:46.433Z,0.00
2022-10-09T05:09:46.389Z,0.00
2022-10-09T05:10:46.366Z,0.00
2022-10-09T05:11:46.375Z,0.00
2022-10-09T05:12:46.680Z,0.00
2022-10-09T05:13:46.342Z,5.62
2022-10-09T05:14:46.327Z,5.62
2022-10-09T05:15:46.325Z,5.62
2022-10-09T05:17:11.896Z,5.62
2022-10-09T05:17:47.315Z,5.62
2022-10-09T05:18:46.312Z,5.62
2022-10-09T05:19:46.307Z,5.62
2022-10-09T05:20:46.275Z,11.25
2022-10-09T05:21:46.265Z,11.25
2022-10-09T05:22:46.539Z,11.25
2022-10-09T05:23:46.251Z,11.25
2022-10-09T05:24:46.264Z,11.25
2022-10-09T05:25:46.236Z,16.88
2022-10-09T05:26:46.207Z,16.88
2022-10-09T05:27:46.205Z,16.88
2022-10-09T05:28:46.299Z,16.88
2022-10-09T05:29:46.177Z,16.88
2022-10-09T05:30:46.168Z,22.50
2022-10-09T05:31:49.481Z,22.50
2022-10-09T05:32:46.334Z,22.50
2022-10-09T05:33:46.148Z,22.50
2022-10-09T05:34:46.118Z,28.12
2022-10-09T05:35:46.119Z,28.12
2022-10-09T05:36:46.109Z,28.12
2022-10-09T05:37:46.106Z,33.75
2022-10-09T05:38:46.100Z,33.75
2022-10-09T05:39:46.063Z,33.75
2022-10-09T05:40:46.066Z,39.38
2022-10-09T05:41:46.056Z,39.38
2022-10-09T05:42:46.277Z,39.38
2022-10-09T05:43:46.049Z,45.00
2022-10-09T05:44:46.030Z,45.00
2022-10-09T05:45:46.038Z,45.00
2022-10-09T05:46:45.999Z,45.00
2022-10-09T05:47:46.004Z,50.62
2022-10-09T05:48:45.979Z,50.62
2022-10-09T05:49:45.988Z,50.62
2022-10-09T05:50:45.963Z,50.62
2022-10-09T05:51:45.951Z,56.25
2022-10-09T05:52:46.137Z,56.25
2022-10-09T05:53:45.959Z,56.25
2022-10-09T05:54:45.921Z,56.25
2022-10-09T05:55:45.951Z,61.88
2022-10-09T05:56:45.896Z,61.88
2022-10-09T05:57:45.882Z,61.88
2022-10-09T05:58:45.898Z,67.50
2022-10-09T05:59:45.873Z,67.50
2022-10-09T06:00:45.861Z,67.50
2022-10-09T06:01:45.880Z,67.50
2022-10-09T06:02:45.974Z,73.12
2022-10-09T06:03:45.824Z,73.12
2022-10-09T06:04:45.831Z,73.12
2022-10-09T06:05:45.802Z,78.75
2022-10-09T06:06:45.788Z,78.75
2022-10-09T06:07:45.793Z,78.75
2022-10-09T06:08:45.810Z,84.38
2022-10-09T06:09:45.756Z,84.38
2022-10-09T06:10:45.774Z,84.38
2022-10-09T06:11:45.741Z,90.00
2022-10-09T06:12:45.811Z,90.00
2022-10-09T06:13:45.768Z,90.00
2022-10-09T06:14:45.706Z,95.62
2022-10-09T06:15:45.696Z,95.62
2022-10-09T06:16:45.777Z,95.62
2022-10-09T06:17:45.699Z,101.25
2022-10-09T06:18:49.052Z,101.25
2022-10-09T06:19:45.661Z,101.25
2022-10-09T06:20:45.643Z,106.88
2022-10-09T06:21:45.636Z,106.88
2022-10-09T06:22:45.695Z,106.88
2022-10-09T06:23:45.614Z,106.88
2022-10-09T06:24:45.631Z,106.88
2022-10-09T06:25:45.630Z,106.88
2022-10-09T06:26:45.598Z,112.50
2022-10-09T06:27:45.594Z,112.50
2022-10-09T06:28:45.634Z,118.12
2022-10-09T06:29:45.550Z,118.12
2022-10-09T06:30:45.544Z,118.12
2022-10-09T06:31:45.525Z,123.75
2022-10-09T06:32:45.527Z,123.75
2022-10-09T06:33:45.538Z,129.38
2022-10-09T06:34:45.502Z,129.38
2022-10-09T06:35:45.503Z,129.38
2022-10-09T06:36:45.491Z,135.00
2022-10-09T06:37:45.514Z,135.00
2022-10-09T06:38:45.492Z,140.62
2022-10-09T06:39:45.457Z,140.62
2022-10-09T06:40:45.429Z,140.62
2022-10-09T06:41:45.439Z,146.25
2022-10-09T06:42:45.416Z,146.25
2022-10-09T06:43:45.419Z,146.25
2022-10-09T06:44:45.388Z,151.88
2022-10-09T06:45:45.422Z,151.88
2022-10-09T06:46:45.385Z,151.88
2022-10-09T06:47:45.370Z,157.50
2022-10-09T06:48:45.377Z,157.50
2022-10-09T06:49:45.334Z,163.12
2022-10-09T06:50:45.341Z,163.12
2022-10-09T06:51:45.339Z,157.50
2022-10-09T06:52:45.334Z,157.50
2022-10-09T06:53:45.312Z,157.50
2022-10-09T06:54:45.293Z,157.50
2022-10-09T06:55:45.297Z,151.88
2022-10-09T06:56:45.260Z,157.50
2022-10-09T06:57:45.261Z,157.50
2022-10-09T06:58:45.263Z,163.12
2022-10-09T06:59:45.261Z,163.12
2022-10-09T07:00:45.231Z,168.75
2022-10-09T07:01:45.324Z,174.38
2022-10-09T07:02:45.229Z,180.00
2022-10-09T07:03:45.230Z,163.12
2022-10-09T07:04:45.220Z,157.50
2022-10-09T07:05:45.186Z,168.75
2022-10-09T07:06:45.174Z,185.62
2022-10-09T07:07:45.173Z,191.25
2022-10-09T07:08:45.205Z,196.88
2022-10-09T07:09:45.134Z,196.88
2022-10-09T07:10:45.174Z,202.50
2022-10-09T07:11:45.110Z,202.50
2022-10-09T07:12:45.142Z,202.50
2022-10-09T07:13:45.096Z,202.50
2022-10-09T07:14:45.094Z,208.12
2022-10-09T07:15:45.095Z,213.75
2022-10-09T07:16:45.061Z,213.75
2022-10-09T07:17:45.083Z,208.12
2022-10-09T07:18:45.080Z,208.12
2022-10-09T07:19:45.028Z,213.75
2022-10-09T07:20:45.055Z,219.38
2022-10-09T07:21:45.039Z,230.62
2022-10-09T07:22:45.039Z,230.62
2022-10-09T07:23:45.015Z,236.25
2022-10-09T07:24:44.977Z,236.25
2022-10-09T07:25:44.996Z,236.25
2022-10-09T07:26:44.959Z,241.88
2022-10-09T07:27:44.969Z,241.88
2022-10-09T07:28:44.991Z,247.50
2022-10-09T07:29:44.938Z,247.50
2022-10-09T07:30:44.928Z,247.50
2022-10-09T07:31:44.930Z,247.50
2022-10-09T07:32:44.912Z,253.12
2022-10-09T07:33:44.877Z,247.50
2022-10-09T07:34:44.867Z,253.12
2022-10-09T07:35:44.868Z,258.75
2022-10-09T07:36:44.875Z,258.75
2022-10-09T07:37:44.859Z,258.75
2022-10-09T07:38:44.823Z,264.38
2022-10-09T07:39:45.198Z,258.75
2022-10-09T07:40:44.809Z,258.75
2022-10-09T07:41:44.816Z,264.38
2022-10-09T07:42:44.790Z,264.38
2022-10-09T07:43:44.807Z,258.75
2022-10-09T07:44:44.769Z,236.25
2022-10-09T07:45:44.795Z,225.00
2022-10-09T07:46:44.792Z,225.00
2022-10-09T07:47:44.737Z,230.62
2022-10-09T07:48:44.730Z,258.75
2022-10-09T07:49:44.737Z,270.00
2022-10-09T07:50:44.700Z,270.00
2022-10-09T07:51:44.722Z,275.62
2022-10-09T07:52:44.702Z,286.88
2022-10-09T07:53:44.682Z,286.88
2022-10-09T07:54:44.671Z,292.50
2022-10-09T07:55:44.681Z,292.50
2022-10-09T07:56:44.661Z,281.25
2022-10-09T07:57:44.647Z,286.88
2022-10-09T07:58:44.631Z,281.25
2022-10-09T07:59:44.611Z,292.50
2022-10-09T08:00:44.616Z,286.88
2022-10-09T08:01:44.664Z,298.12
2022-10-09T08:02:44.630Z,298.12
2022-10-09T08:03:44.580Z,298.12
2022-10-09T08:04:44.556Z,292.50
2022-10-09T08:05:44.569Z,292.50
2022-10-09T08:06:44.564Z,292.50
2022-10-09T08:07:44.525Z,270.00
2022-10-09T08:08:44.526Z,281.25
2022-10-09T08:09:44.513Z,281.25
2022-10-09T08:10:44.498Z,247.50
2022-10-09T08:11:44.506Z,241.88
2022-10-09T08:12:44.475Z,281.25
2022-10-09T08:13:44.468Z,292.50
2022-10-09T08:14:44.454Z,270.00
2022-10-09T08:15:44.572Z,270.00
2022-10-09T08:16:44.457Z,270.00
2022-10-09T08:17:44.427Z,264.38
2022-10-09T08:18:44.430Z,270.00
2022-10-09T08:19:44.405Z,303.75
2022-10-09T08:20:44.414Z,315.00
2022-10-09T08:21:44.414Z,326.25
2022-10-09T08:22:44.389Z,331.88
2022-10-09T08:23:44.368Z,326.25
2022-10-09T08:24:44.349Z,326.25
2022-10-09T08:25:44.338Z,337.50
2022-10-09T08:26:44.367Z,331.88
2022-10-09T08:27:44.318Z,337.50
2022-10-09T08:28:44.341Z,337.50
2022-10-09T08:29:44.298Z,337.50
2022-10-09T08:30:44.356Z,343.12
2022-10-09T08:31:44.301Z,343.12
2022-10-09T08:32:44.270Z,343.12
2022-10-09T08:33:44.261Z,343.12
2022-10-09T08:34:44.249Z,348.75
2022-10-09T08:35:44.255Z,348.75
2022-10-09T08:36:44.240Z,348.75
2022-10-09T08:37:44.241Z,348.75
2022-10-09T08:38:48.367Z,354.38
2022-10-09T08:39:44.201Z,354.38
2022-10-09T08:40:44.218Z,354.38
2022-10-09T08:41:44.191Z,360.00
2022-10-09T08:42:44.172Z,360.00
2022-10-09T08:43:44.151Z,360.00
2022-10-09T08:44:44.152Z,365.62
2022-10-09T08:45:44.141Z,365.62
2022-10-09T08:46:44.207Z,365.62
2022-10-09T08:47:44.116Z,371.25
2022-10-09T08:48:44.116Z,371.25
2022-10-09T08:49:44.112Z,371.25
2022-10-09T08:50:44.105Z,371.25
2022-10-09T08:51:44.084Z,371.25
2022-10-09T08:52:49.100Z,371.25
2022-10-09T08:53:45.055Z,371.25
2022-10-09T08:54:44.044Z,371.25
2022-10-09T08:55:44.041Z,371.25
2022-10-09T08:56:44.025Z,376.88
2022-10-09T08:57:44.026Z,376.88
2022-10-09T08:58:44.010Z,376.88
2022-10-09T08:59:44.011Z,382.50
2022-10-09T09:00:43.974Z,382.50
2022-10-09T09:01:44.053Z,382.50
2022-10-09T09:02:44.048Z,382.50
2022-10-09T09:03:43.947Z,382.50
2022-10-09T09:04:43.950Z,382.50
2022-10-09T09:05:43.942Z,382.50
2022-10-09T09:06:43.918Z,382.50
2022-10-09T09:07:43.915Z,382.50
2022-10-09T09:08:43.924Z,382.50
2022-10-09T09:09:43.888Z,388.12
2022-10-09T09:10:43.898Z,388.12
2022-10-09T09:11:43.876Z,388.12
2022-10-09T09:12:43.851Z,388.12
2022-10-09T09:13:43.835Z,388.12
2022-10-09T09:14:43.840Z,388.12
2022-10-09T09:15:43.839Z,393.75
2022-10-09T09:16:43.819Z,393.75
2022-10-09T09:17:43.803Z,393.75
2022-10-09T09:18:43.779Z,393.75
2022-10-09T09:19:43.791Z,388.12
2022-10-09T09:20:43.761Z,399.38
2022-10-09T09:21:43.772Z,399.38
2022-10-09T09:22:43.751Z,393.75
2022-10-09T09:23:43.740Z,399.38
2022-10-09T09:24:43.720Z,399.38
2022-10-09T09:25:43.743Z,399.38
2022-10-09T09:26:43.699Z,405.00
2022-10-09T09:27:43.701Z,405.00
2022-10-09T09:28:43.767Z,405.00
2022-10-09T09:29:43.664Z,405.00
2022-10-09T09:30:43.652Z,410.62
2022-10-09T09:31:43.692Z,410.62
2022-10-09T09:32:43.650Z,410.62
2022-10-09T09:33:44.878Z,410.62
2022-10-09T09:34:43.613Z,416.25
2022-10-09T09:35:43.604Z,416.25
2022-10-09T09:36:43.612Z,416.25
2022-10-09T09:37:43.589Z,416.25
2022-10-09T09:39:03.201Z,416.25
2022-10-09T09:40:47.200Z,416.25
2022-10-09T09:41:43.535Z,416.25
2022-10-09T09:42:43.536Z,416.25
2022-10-09T09:43:43.517Z,416.25
2022-10-09T09:44:43.527Z,421.88
2022-10-09T09:45:43.507Z,421.88
2022-10-09T09:46:43.548Z,421.88
2022-10-09T09:47:43.503Z,427.50
2022-10-09T09:48:43.526Z,421.88
2022-10-09T09:49:43.468Z,421.88
2022-10-09T09:50:52.642Z,427.50
2022-10-09T09:51:44.446Z,427.50
2022-10-09T09:52:43.427Z,427.50
2022-10-09T09:53:43.409Z,433.12
2022-10-09T09:54:43.420Z,433.12
2022-10-09T09:55:43.409Z,433.12
2022-10-09T09:57:10.449Z,433.12
2022-10-09T09:57:44.370Z,427.50
2022-10-09T09:58:43.349Z,427.50
2022-10-09T09:59:43.375Z,433.12
2022-10-09T10:00:43.403Z,427.50
2022-10-09T10:01:43.350Z,427.50
2022-10-09T10:02:43.325Z,438.75
2022-10-09T10:03:43.321Z,433.12
2022-10-09T10:04:43.397Z,433.12
2022-10-09T10:05:43.283Z,433.12
2022-10-09T10:06:43.272Z,433.12
2022-10-09T10:07:43.293Z,444.38
2022-10-09T10:08:43.258Z,438.75
2022-10-09T10:09:43.263Z,438.75
2022-10-09T10:10:43.262Z,438.75
2022-10-09T10:11:43.225Z,438.75
2022-10-09T10:12:43.223Z,438.75
2022-10-09T10:13:43.205Z,438.75
2022-10-09T10:14:43.213Z,438.75
2022-10-09T10:15:43.187Z,438.75
2022-10-09T10:16:43.227Z,444.38
2022-10-09T10:17:43.184Z,438.75
2022-10-09T10:18:43.186Z,444.38
2022-10-09T10:19:43.153Z,444.38
2022-10-09T10:20:43.136Z,455.62
2022-10-09T10:21:43.126Z,455.62
2022-10-09T10:22:43.119Z,461.25
2022-10-09T10:23:43.125Z,298.12
2022-10-09T10:24:43.194Z,191.25
2022-10-09T10:25:43.087Z,455.62
2022-10-09T10:26:43.188Z,495.00
2022-10-09T10:27:43.059Z,489.38
2022-10-09T10:28:43.243Z,500.62
2022-10-09T10:29:43.061Z,511.88
2022-10-09T10:30:43.071Z,511.88
2022-10-09T10:31:43.067Z,433.12
2022-10-09T10:32:43.074Z,433.12
2022-10-09T10:33:43.003Z,534.38
2022-10-09T10:34:43.029Z,540.00
2022-10-09T10:35:43.002Z,500.62
2022-10-09T10:36:43.003Z,523.12
2022-10-09T10:37:42.978Z,472.50
2022-10-09T10:38:42.962Z,506.25
2022-10-09T10:39:42.939Z,500.62
2022-10-09T10:40:42.929Z,506.25
2022-10-09T10:41:42.934Z,236.25
2022-10-09T10:42:42.924Z,315.00
2022-10-09T10:43:42.924Z,281.25
2022-10-09T10:44:42.898Z,416.25
2022-10-09T10:45:42.870Z,236.25
2022-10-09T10:46:42.878Z,281.25
2022-10-09T10:47:42.846Z,376.88
2022-10-09T10:48:42.854Z,517.50
2022-10-09T10:49:42.872Z,298.12
2022-10-09T10:50:42.814Z,517.50
2022-10-09T10:51:42.818Z,506.25
2022-10-09T10:52:42.805Z,495.00
2022-10-09T10:53:42.780Z,495.00
2022-10-09T10:54:42.778Z,450.00
2022-10-09T10:55:42.784Z,478.12
2022-10-09T10:56:42.756Z,281.25
2022-10-09T10:57:42.758Z,523.12
2022-10-09T10:58:43.677Z,534.38
2022-10-09T10:59:42.729Z,568.12
2022-10-09T11:00:42.773Z,534.38
2022-10-09T11:01:42.727Z,523.12
2022-10-09T11:02:42.761Z,517.50
2022-10-09T11:03:42.755Z,511.88
2022-10-09T11:04:42.689Z,511.88
2022-10-09T11:05:42.676Z,511.88
2022-10-09T11:06:42.648Z,500.62
2022-10-09T11:07:42.659Z,495.00
2022-10-09T11:08:42.649Z,506.25
2022-10-09T11:09:42.610Z,247.50
2022-10-09T11:10:42.625Z,253.12
2022-10-09T11:11:42.634Z,483.75
2022-10-09T11:12:48.303Z,264.38
2022-10-09T11:13:43.577Z,258.75
2022-10-09T11:14:42.572Z,292.50
2022-10-09T11:15:42.591Z,483.75
2022-10-09T11:16:42.601Z,399.38
2022-10-09T11:17:42.522Z,230.62
2022-10-09T11:18:42.526Z,219.38
2022-10-09T11:19:45.457Z,213.75
2022-10-09T11:20:42.543Z,208.12
2022-10-09T11:21:42.513Z,213.75
2022-10-09T11:22:42.495Z,225.00
2022-10-09T11:23:42.509Z,472.50
2022-10-09T11:24:42.464Z,528.75
2022-10-09T11:25:42.463Z,517.50
2022-10-09T11:26:42.446Z,275.62
2022-10-09T11:27:42.435Z,326.25
2022-10-09T11:28:42.463Z,208.12
2022-10-09T11:29:42.415Z,185.62
2022-10-09T11:30:42.430Z,180.00
2022-10-09T11:31:42.447Z,185.62
2022-10-09T11:32:42.378Z,191.25
2022-10-09T11:33:42.376Z,219.38
2022-10-09T11:34:42.357Z,450.00
2022-10-09T11:35:42.346Z,416.25
2022-10-09T11:36:42.361Z,506.25
2022-10-09T11:37:42.356Z,511.88
2022-10-09T11:38:42.330Z,506.25
2022-10-09T11:39:42.325Z,500.62
2022-10-09T11:40:42.379Z,495.00
2022-10-09T11:41:42.307Z,416.25
2022-10-09T11:42:42.303Z,253.12
2022-10-09T11:43:42.258Z,202.50
2022-10-09T11:44:42.283Z,196.88
2022-10-09T11:45:42.289Z,191.25
2022-10-09T11:46:42.242Z,180.00
2022-10-09T11:47:42.274Z,180.00
2022-10-09T11:48:42.210Z,180.00
2022-10-09T11:49:42.221Z,191.25
2022-10-09T11:50:42.203Z,196.88
2022-10-09T11:51:42.191Z,258.75
2022-10-09T11:52:42.234Z,478.12
2022-10-09T11:53:42.181Z,478.12
2022-10-09T11:54:42.153Z,483.75
2022-10-09T11:55:42.135Z,483.75
2022-10-09T11:56:42.126Z,483.75
2022-10-09T11:57:42.121Z,483.75
2022-10-09T11:58:42.113Z,489.38
2022-10-09T11:59:42.124Z,483.75
2022-10-09T12:00:42.094Z,483.75
2022-10-09T12:01:42.162Z,489.38
2022-10-09T12:02:42.166Z,489.38
2022-10-09T12:03:42.062Z,483.75
2022-10-09T12:04:54.449Z,489.38
2022-10-09T12:05:43.062Z,478.12
2022-10-09T12:06:42.056Z,399.38
2022-10-09T12:07:42.044Z,489.38
2022-10-09T12:08:41.996Z,478.12
2022-10-09T12:09:42.029Z,506.25
2022-10-09T12:10:41.990Z,399.38
2022-10-09T12:11:41.968Z,270.00
2022-10-09T12:12:41.967Z,500.62
2022-10-09T12:13:41.961Z,534.38
2022-10-09T12:14:41.946Z,315.00
2022-10-09T12:15:41.929Z,253.12
2022-10-09T12:16:42.103Z,393.75
2022-10-09T12:17:41.939Z,258.75
2022-10-09T12:18:41.924Z,286.88
2022-10-09T12:19:41.900Z,225.00
2022-10-09T12:20:41.895Z,219.38
2022-10-09T12:21:41.858Z,219.38
2022-10-09T12:22:41.935Z,219.38
2022-10-09T12:23:41.839Z,219.38
2022-10-09T12:24:41.851Z,213.75
2022-10-09T12:25:41.841Z,219.38
2022-10-09T12:26:41.830Z,286.88
2022-10-09T12:27:41.870Z,511.88
2022-10-09T12:28:41.915Z,517.50
2022-10-09T12:29:41.792Z,472.50
2022-10-09T12:30:47.471Z,298.12
2022-10-09T12:31:42.790Z,292.50
2022-10-09T12:32:41.741Z,236.25
2022-10-09T12:33:41.741Z,225.00
2022-10-09T12:34:41.754Z,466.88
2022-10-09T12:35:41.716Z,399.38
2022-10-09T12:36:41.730Z,298.12
2022-10-09T12:37:41.730Z,472.50
2022-10-09T12:38:41.713Z,483.75
2022-10-09T12:39:41.669Z,489.38
2022-10-09T12:40:41.677Z,495.00
2022-10-09T12:41:41.684Z,506.25
2022-10-09T12:42:41.637Z,500.62
2022-10-09T12:43:41.639Z,500.62
2022-10-09T12:44:41.636Z,495.00
2022-10-09T12:45:41.659Z,483.75
2022-10-09T12:46:41.628Z,472.50
2022-10-09T12:47:41.595Z,472.50
2022-10-09T12:48:41.640Z,236.25
2022-10-09T12:49:41.588Z,258.75
2022-10-09T12:50:41.562Z,247.50
2022-10-09T12:51:41.547Z,275.62